Okemah, Oklahoma
Current Conditions -  °F | °C
As of 3:15 AM on Thursday 18 Dec 2014 (Local Time) from KOKM Reporting Station
Haze Haze  
Wind Chill: 28°   Ceiling: 400
Heat Index: 36°   Visibility: 5mi
Dew Point: 36°   Wind: 13mph
Humidity: 99%   Direction: 100°E
Pressure: 30.15"   Gusts: NA
Location:  35.43°N, 96.3°W
Report Text: KOKM 180915Z AUTO 10011KT 5SM BR OVC004 02/02 A3015 RMK AO2 T00220020
Loading
Personal Weather Stations






























Interactive Weather Map New forecast layout! Learn more

10-Day Weather Forecast

Advertisements
Track Severe Weather on mobile